createdAt,value
2023-01-17T00:01:22.927Z,85.72
2023-01-17T00:03:49.446Z,86.79
2023-01-17T00:06:16.027Z,85.73
2023-01-17T00:08:42.562Z,86.08
2023-01-17T00:11:09.281Z,86.32
2023-01-17T00:13:35.829Z,85.98
2023-01-17T00:16:03.851Z,86.46
2023-01-17T00:18:30.422Z,86.98
2023-01-17T00:20:56.968Z,85.84
2023-01-17T00:23:25.663Z,86.11
2023-01-17T00:25:52.893Z,86.52
2023-01-17T00:28:19.441Z,88.04
2023-01-17T00:30:46.405Z,87.21
2023-01-17T00:33:14.377Z,87.80
2023-01-17T00:35:41.351Z,88.10
2023-01-17T00:38:10.493Z,88.92
2023-01-17T00:40:39.145Z,88.67
2023-01-17T00:43:06.638Z,89.14
2023-01-17T00:45:33.192Z,89.88
2023-01-17T00:47:59.864Z,89.48
2023-01-17T00:50:27.810Z,88.66
2023-01-17T00:52:54.467Z,88.90
2023-01-17T00:55:20.972Z,89.36
2023-01-17T00:57:47.565Z,89.41
2023-01-17T01:00:14.767Z,88.15
2023-01-17T01:02:41.569Z,88.21
2023-01-17T01:05:08.418Z,88.20
2023-01-17T01:07:36.336Z,88.56
2023-01-17T01:10:03.227Z,89.44
2023-01-17T01:12:29.784Z,88.62
2023-01-17T01:14:56.303Z,88.07
2023-01-17T01:17:22.835Z,87.99
2023-01-17T01:19:49.389Z,87.20
2023-01-17T01:22:16.070Z,87.17
2023-01-17T01:24:43.926Z,86.48
2023-01-17T01:27:10.518Z,86.87
2023-01-17T01:29:37.032Z,86.53
2023-01-17T01:32:03.829Z,86.10
2023-01-17T01:34:30.378Z,85.46
2023-01-17T01:36:56.899Z,84.81
2023-01-17T01:39:23.504Z,85.16
2023-01-17T01:41:51.778Z,85.19
2023-01-17T01:44:42.676Z,85.08
2023-01-17T01:47:12.157Z,84.16
2023-01-17T01:49:38.764Z,84.27
2023-01-17T01:52:08.183Z,83.97
2023-01-17T01:54:39.183Z,83.69
2023-01-17T01:57:09.863Z,83.13
2023-01-17T01:59:40.575Z,83.58
2023-01-17T02:02:07.808Z,82.49
2023-01-17T02:04:35.332Z,82.68
2023-01-17T02:07:05.579Z,83.19
2023-01-17T02:09:32.134Z,83.05
2023-01-17T02:11:58.966Z,82.70
2023-01-17T02:14:27.007Z,82.33
2023-01-17T02:17:05.850Z,83.18
2023-01-17T02:19:54.790Z,82.16
2023-01-17T02:22:47.572Z,82.60
2023-01-17T02:25:41.222Z,83.03
2023-01-17T02:28:28.156Z,82.97
2023-01-17T02:31:02.415Z,83.14
2023-01-17T02:33:36.200Z,83.11
2023-01-17T02:36:11.160Z,82.87
2023-01-17T02:38:44.646Z,83.33
2023-01-17T02:41:16.336Z,83.29
2023-01-17T02:43:43.233Z,83.40
2023-01-17T02:46:11.332Z,83.19
2023-01-17T02:48:38.811Z,82.88
2023-01-17T02:51:27.012Z,82.78
2023-01-17T02:54:10.770Z,82.92
2023-01-17T02:56:48.431Z,82.98
2023-01-17T02:59:27.228Z,83.07
2023-01-17T03:02:07.098Z,83.01
2023-01-17T03:04:39.250Z,82.90
2023-01-17T03:07:11.095Z,82.87
2023-01-17T03:09:38.944Z,82.16
2023-01-17T03:12:06.277Z,82.59
2023-01-17T03:14:32.860Z,82.66
2023-01-17T03:17:00.788Z,82.55
2023-01-17T03:19:27.428Z,82.82
2023-01-17T03:21:54.170Z,82.20
2023-01-17T03:24:21.018Z,81.68
2023-01-17T03:26:47.772Z,81.65
2023-01-17T03:29:15.031Z,80.97
2023-01-17T03:31:41.600Z,80.59
2023-01-17T03:34:09.523Z,80.23
2023-01-17T03:36:36.240Z,80.39
2023-01-17T03:39:02.858Z,79.42
2023-01-17T03:41:29.526Z,78.14
2023-01-17T03:43:56.110Z,79.02
2023-01-17T03:46:24.643Z,78.97
2023-01-17T03:48:51.569Z,79.58
2023-01-17T03:51:20.202Z,78.90
2023-01-17T03:53:47.108Z,79.11
2023-01-17T03:56:14.220Z,78.45
2023-01-17T03:58:41.679Z,78.11
2023-01-17T04:01:08.720Z,78.37
2023-01-17T04:03:35.589Z,78.67
2023-01-17T04:06:02.155Z,78.42
2023-01-17T04:08:30.208Z,78.78
2023-01-17T04:10:56.786Z,78.37
2023-01-17T04:13:23.651Z,78.21
2023-01-17T04:15:51.106Z,78.26
2023-01-17T04:18:20.205Z,77.98
2023-01-17T04:20:47.226Z,78.48
2023-01-17T04:23:13.961Z,78.23
2023-01-17T04:25:41.914Z,77.68
2023-01-17T04:28:10.120Z,78.28
2023-01-17T04:30:37.094Z,77.62
2023-01-17T04:33:05.220Z,77.65
2023-01-17T04:35:32.479Z,77.56
2023-01-17T04:37:59.186Z,76.88
2023-01-17T04:40:25.857Z,76.48
2023-01-17T04:42:53.789Z,75.75
2023-01-17T04:45:20.352Z,75.10
2023-01-17T04:47:46.945Z,75.40
2023-01-17T04:50:13.872Z,74.48
2023-01-17T04:52:40.537Z,75.43
2023-01-17T04:55:07.910Z,75.88
2023-01-17T04:57:34.593Z,75.92
2023-01-17T05:00:02.748Z,76.26
2023-01-17T05:02:29.436Z,75.59
2023-01-17T05:04:55.966Z,75.68
2023-01-17T05:07:22.636Z,75.69
2023-01-17T05:09:49.148Z,75.94
2023-01-17T05:12:15.842Z,75.87
2023-01-17T05:14:42.420Z,75.89
2023-01-17T05:17:10.692Z,75.15
2023-01-17T05:19:37.278Z,75.47
2023-01-17T05:22:04.303Z,74.79
2023-01-17T05:24:30.953Z,74.33
2023-01-17T05:26:58.238Z,74.66
2023-01-17T05:29:24.771Z,73.99
2023-01-17T05:31:51.326Z,74.67
2023-01-17T05:34:19.402Z,74.50
2023-01-17T05:36:46.004Z,74.12
2023-01-17T05:39:12.526Z,74.25
2023-01-17T05:41:39.127Z,74.52
2023-01-17T05:44:05.755Z,74.63
2023-01-17T05:46:32.454Z,74.75
2023-01-17T05:48:58.987Z,74.07
2023-01-17T05:51:26.998Z,74.32
2023-01-17T05:53:53.584Z,74.49
2023-01-17T05:56:20.541Z,75.14
2023-01-17T05:58:47.100Z,74.89
2023-01-17T06:01:13.662Z,74.09
2023-01-17T06:03:40.188Z,74.34
2023-01-17T06:06:07.343Z,73.33
2023-01-17T06:08:35.334Z,74.35
2023-01-17T06:11:01.908Z,74.02
2023-01-17T06:13:28.675Z,73.96
2023-01-17T06:15:55.377Z,74.13
2023-01-17T06:18:22.143Z,73.83
2023-01-17T06:20:52.644Z,74.18
2023-01-17T06:23:19.158Z,74.01
2023-01-17T06:25:47.930Z,72.60
2023-01-17T06:28:17.064Z,73.57
2023-01-17T06:30:44.287Z,73.38
2023-01-17T06:33:11.203Z,73.09
2023-01-17T06:35:37.782Z,73.37
2023-01-17T06:38:04.524Z,72.98
2023-01-17T06:40:31.257Z,73.78
2023-01-17T06:43:01.306Z,73.37
2023-01-17T06:45:28.150Z,73.54
2023-01-17T06:47:54.895Z,74.00
2023-01-17T06:50:22.019Z,73.84
2023-01-17T06:52:55.240Z,73.83
2023-01-17T06:55:22.601Z,73.79
2023-01-17T06:57:49.820Z,74.65
2023-01-17T07:00:18.953Z,74.72
2023-01-17T07:02:48.531Z,74.82
2023-01-17T07:05:15.235Z,74.99
2023-01-17T07:07:41.752Z,75.56
2023-01-17T07:10:09.424Z,76.06
2023-01-17T07:12:35.974Z,76.42
2023-01-17T07:15:02.606Z,76.58
2023-01-17T07:17:30.716Z,76.77
2023-01-17T07:19:57.521Z,77.13
2023-01-17T07:22:24.053Z,77.28
2023-01-17T07:24:50.712Z,77.38
2023-01-17T07:27:17.259Z,77.62
2023-01-17T07:29:44.004Z,77.69
2023-01-17T07:32:10.575Z,78.21
2023-01-17T07:34:38.770Z,78.25
2023-01-17T07:37:05.318Z,78.78
2023-01-17T07:39:31.999Z,79.27
2023-01-17T07:41:58.518Z,79.74
2023-01-17T07:44:25.122Z,80.46
2023-01-17T07:46:51.706Z,81.09
2023-01-17T07:49:18.315Z,81.22
2023-01-17T07:51:47.810Z,81.52
2023-01-17T07:54:14.490Z,81.09
2023-01-17T07:56:41.010Z,80.88
2023-01-17T07:59:07.828Z,81.08
2023-01-17T08:01:34.696Z,81.41
2023-01-17T08:04:01.379Z,81.72
2023-01-17T08:06:28.724Z,82.14
2023-01-17T08:08:56.722Z,82.42
2023-01-17T08:11:23.232Z,82.56
2023-01-17T08:13:49.828Z,82.48
2023-01-17T08:16:16.526Z,82.85
2023-01-17T08:18:43.230Z,82.91
2023-01-17T08:21:14.545Z,83.27
2023-01-17T08:23:41.259Z,83.16
2023-01-17T08:26:09.360Z,82.83
2023-01-17T08:28:36.005Z,82.58
2023-01-17T08:31:06.843Z,83.42
2023-01-17T08:33:33.486Z,84.19
2023-01-17T08:36:00.207Z,84.64
2023-01-17T08:38:27.099Z,84.43
2023-01-17T08:40:53.767Z,84.01
2023-01-17T08:43:22.085Z,83.91
2023-01-17T08:45:49.981Z,83.98
2023-01-17T08:48:16.615Z,84.00
2023-01-17T08:50:43.139Z,84.26
2023-01-17T08:53:09.776Z,84.64
2023-01-17T08:55:36.416Z,84.77
2023-01-17T08:58:03.013Z,84.60
2023-01-17T09:00:30.961Z,84.23
2023-01-17T09:02:57.540Z,83.62
2023-01-17T09:05:24.194Z,83.54
2023-01-17T09:07:51.094Z,83.55
2023-01-17T09:10:17.693Z,83.40
2023-01-17T09:12:44.314Z,83.12
2023-01-17T09:15:11.420Z,83.14
2023-01-17T09:17:39.593Z,83.03
2023-01-17T09:20:07.894Z,82.07
2023-01-17T09:22:34.582Z,81.40
2023-01-17T09:25:01.231Z,81.16
2023-01-17T09:27:27.854Z,79.24
2023-01-17T09:29:54.527Z,78.37
2023-01-17T09:32:21.121Z,76.74
2023-01-17T09:34:48.986Z,72.46
2023-01-17T09:37:15.642Z,72.42
2023-01-17T09:39:42.312Z,72.46
2023-01-17T09:42:20.648Z,72.87
2023-01-17T09:44:49.000Z,73.28
2023-01-17T09:47:20.271Z,71.09
2023-01-17T09:49:48.827Z,70.96
2023-01-17T09:52:19.650Z,69.70
2023-01-17T09:54:47.746Z,70.78
2023-01-17T09:57:27.348Z,68.88
2023-01-17T10:00:05.054Z,68.08
2023-01-17T10:02:50.989Z,68.18
2023-01-17T10:05:37.011Z,67.07
2023-01-17T10:08:16.462Z,69.00
2023-01-17T10:10:53.117Z,67.06
2023-01-17T10:13:34.350Z,67.93
2023-01-17T10:16:18.732Z,67.89
2023-01-17T10:19:10.347Z,66.94
2023-01-17T10:22:08.701Z,66.60
2023-01-17T10:24:57.219Z,66.95
2023-01-17T10:27:28.767Z,67.35
2023-01-17T10:29:55.485Z,67.58
2023-01-17T10:32:25.046Z,66.79
2023-01-17T10:34:53.171Z,65.70
2023-01-17T10:37:26.215Z,66.08
2023-01-17T10:39:55.903Z,65.85
2023-01-17T10:42:27.783Z,65.09
2023-01-17T10:45:04.337Z,65.97
2023-01-17T10:47:34.157Z,65.86
2023-01-17T10:50:04.155Z,66.68
2023-01-17T10:52:45.089Z,64.30
2023-01-17T10:55:24.895Z,63.92
2023-01-17T10:57:53.764Z,64.13
2023-01-17T11:00:39.751Z,63.84
2023-01-17T11:03:09.647Z,64.44
2023-01-17T11:05:36.341Z,62.89
2023-01-17T11:08:06.394Z,62.86
2023-01-17T11:10:36.197Z,63.37
2023-01-17T11:13:04.806Z,63.73
2023-01-17T11:15:33.568Z,63.13
2023-01-17T11:18:06.964Z,62.90
2023-01-17T11:20:36.341Z,62.05
2023-01-17T11:23:14.607Z,62.30
2023-01-17T11:25:51.918Z,62.02
2023-01-17T11:28:23.668Z,61.70
2023-01-17T11:30:52.978Z,61.96
2023-01-17T11:33:33.984Z,61.99
2023-01-17T11:36:00.865Z,60.86
2023-01-17T11:38:28.922Z,60.52
2023-01-17T11:40:55.734Z,57.92
2023-01-17T11:43:24.137Z,57.62
2023-01-17T11:46:03.973Z,57.52
2023-01-17T11:48:36.301Z,57.91
2023-01-17T11:51:04.612Z,56.73
2023-01-17T11:53:36.847Z,56.16
2023-01-17T11:56:05.643Z,56.10
2023-01-17T11:58:34.655Z,56.51
2023-01-17T12:01:19.093Z,54.13
2023-01-17T12:04:07.043Z,55.03
2023-01-17T12:06:56.767Z,53.53
2023-01-17T12:09:32.107Z,54.16
2023-01-17T12:12:07.252Z,52.10
2023-01-17T12:14:44.166Z,51.23
2023-01-17T12:17:27.654Z,50.78
2023-01-17T12:19:59.596Z,50.10
2023-01-17T12:22:34.798Z,50.36
2023-01-17T12:25:19.057Z,50.05
2023-01-17T12:27:57.420Z,50.93
2023-01-17T12:30:36.401Z,50.36
2023-01-17T12:33:18.731Z,50.83
2023-01-17T12:35:50.095Z,51.22
2023-01-17T12:38:32.156Z,50.13
2023-01-17T12:41:09.827Z,50.00
2023-01-17T12:43:39.952Z,48.42
2023-01-17T12:46:12.004Z,48.47
2023-01-17T12:48:38.766Z,47.68
2023-01-17T12:51:11.377Z,48.66
2023-01-17T12:53:42.170Z,47.47
2023-01-17T12:56:18.709Z,47.04
2023-01-17T12:58:48.786Z,46.90
2023-01-17T13:01:23.601Z,46.97
2023-01-17T13:04:00.333Z,47.27
2023-01-17T13:06:32.381Z,48.51
2023-01-17T13:09:02.175Z,48.37
2023-01-17T13:11:35.616Z,47.67
2023-01-17T13:14:02.250Z,48.78
2023-01-17T13:16:35.279Z,47.81
2023-01-17T13:19:11.188Z,47.32
2023-01-17T13:21:37.963Z,46.43
2023-01-17T13:24:25.551Z,46.76
2023-01-17T13:27:31.190Z,47.61
2023-01-17T13:30:28.700Z,45.79
2023-01-17T13:33:16.451Z,47.86
2023-01-17T13:35:58.308Z,47.72
2023-01-17T13:38:34.503Z,48.48
2023-01-17T13:41:11.326Z,48.56
2023-01-17T13:43:42.341Z,48.87
2023-01-17T13:46:08.957Z,49.03
2023-01-17T13:48:37.100Z,50.06
2023-01-17T13:51:04.645Z,50.56
2023-01-17T13:53:49.036Z,50.40
2023-01-17T13:56:28.104Z,49.78
2023-01-17T13:58:58.833Z,49.76
2023-01-17T14:01:50.515Z,50.41
2023-01-17T14:04:17.202Z,49.99
2023-01-17T14:06:44.806Z,49.91
2023-01-17T14:09:16.400Z,50.20
2023-01-17T14:11:59.439Z,52.11
2023-01-17T14:14:44.187Z,51.61
2023-01-17T14:17:47.485Z,51.88
2023-01-17T14:20:49.659Z,53.14
2023-01-17T14:23:42.382Z,52.68
2023-01-17T14:26:22.155Z,53.01
2023-01-17T14:28:49.128Z,53.52
2023-01-17T14:31:17.479Z,54.10
2023-01-17T14:33:44.154Z,54.74
2023-01-17T14:36:14.544Z,55.51
2023-01-17T14:38:43.137Z,55.88
2023-01-17T14:41:14.102Z,57.01
2023-01-17T14:43:42.817Z,56.74
2023-01-17T14:46:20.951Z,57.77
2023-01-17T14:48:47.650Z,58.96
2023-01-17T14:51:19.073Z,59.26
2023-01-17T14:53:53.446Z,59.73
2023-01-17T14:56:20.263Z,60.21
2023-01-17T14:58:46.833Z,60.10
2023-01-17T15:01:15.508Z,60.33
2023-01-17T15:03:45.875Z,61.03
2023-01-17T15:06:17.135Z,61.44
2023-01-17T15:08:43.974Z,62.08
2023-01-17T15:11:18.153Z,62.67
2023-01-17T15:13:48.111Z,62.79
2023-01-17T15:16:21.170Z,63.64
2023-01-17T15:18:50.309Z,63.58
2023-01-17T15:21:19.509Z,64.20
2023-01-17T15:23:48.290Z,64.39
2023-01-17T15:26:17.776Z,64.89
2023-01-17T15:28:45.042Z,65.48
2023-01-17T15:31:15.340Z,65.34
2023-01-17T15:33:44.411Z,65.28
2023-01-17T15:36:23.721Z,65.87
2023-01-17T15:38:55.487Z,66.74
2023-01-17T15:41:24.890Z,68.25
2023-01-17T15:43:51.439Z,68.83
2023-01-17T15:46:23.611Z,69.33
2023-01-17T15:48:50.371Z,70.15
2023-01-17T15:51:30.234Z,70.38
2023-01-17T15:53:56.890Z,70.20
2023-01-17T15:56:30.212Z,69.91
2023-01-17T15:59:29.649Z,70.20
2023-01-17T16:01:57.679Z,70.62
2023-01-17T16:04:32.135Z,70.34
2023-01-17T16:07:17.357Z,71.22
2023-01-17T16:09:44.496Z,71.26
2023-01-17T16:12:11.393Z,71.52
2023-01-17T16:14:56.407Z,72.12
2023-01-17T16:17:25.013Z,73.08
2023-01-17T16:19:51.589Z,73.14
2023-01-17T16:22:19.556Z,72.93
2023-01-17T16:24:46.169Z,73.58
2023-01-17T16:27:12.750Z,73.86
2023-01-17T16:29:39.332Z,74.27
2023-01-17T16:32:06.321Z,74.75
2023-01-17T16:34:32.931Z,74.90
2023-01-17T16:36:59.614Z,74.88
2023-01-17T16:39:27.564Z,75.23
2023-01-17T16:41:59.964Z,75.82
2023-01-17T16:44:26.585Z,76.46
2023-01-17T16:46:53.347Z,76.82
2023-01-17T16:49:20.035Z,77.46
2023-01-17T16:51:46.891Z,77.60
2023-01-17T16:54:13.789Z,78.00
2023-01-17T16:56:41.975Z,77.91
2023-01-17T16:59:08.596Z,77.96
2023-01-17T17:01:35.208Z,78.29
2023-01-17T17:04:02.131Z,79.06
2023-01-17T17:06:30.053Z,78.59
2023-01-17T17:08:58.811Z,79.56
2023-01-17T17:11:25.465Z,79.34
2023-01-17T17:13:53.501Z,80.28
2023-01-17T17:16:22.480Z,80.39
2023-01-17T17:18:55.227Z,80.99
2023-01-17T17:21:21.978Z,81.20
2023-01-17T17:23:51.399Z,80.78
2023-01-17T17:26:17.997Z,81.47
2023-01-17T17:28:44.502Z,82.28
2023-01-17T17:31:12.607Z,82.15
2023-01-17T17:33:39.216Z,82.24
2023-01-17T17:36:07.895Z,82.35
2023-01-17T17:38:34.478Z,82.70
2023-01-17T17:41:08.308Z,82.46
2023-01-17T17:43:36.463Z,82.90
2023-01-17T17:46:03.139Z,83.14
2023-01-17T17:48:31.090Z,83.57
2023-01-17T17:50:59.733Z,83.71
2023-01-17T17:53:27.441Z,83.85
2023-01-17T17:55:54.024Z,84.32
2023-01-17T17:58:21.135Z,84.58
2023-01-17T18:00:47.745Z,85.08
2023-01-17T18:03:14.522Z,85.49
2023-01-17T18:05:42.736Z,85.37
2023-01-17T18:08:09.287Z,85.34
2023-01-17T18:10:35.868Z,85.15
2023-01-17T18:13:02.597Z,85.60
2023-01-17T18:15:29.187Z,85.51
2023-01-17T18:17:55.821Z,85.75
2023-01-17T18:20:22.749Z,85.68
2023-01-17T18:22:50.722Z,85.93
2023-01-17T18:25:17.221Z,86.25
2023-01-17T18:27:43.826Z,86.23
2023-01-17T18:30:11.303Z,86.30
2023-01-17T18:32:37.962Z,86.55
2023-01-17T18:35:05.190Z,86.79
2023-01-17T18:37:31.781Z,87.07
2023-01-17T18:39:59.990Z,87.10
2023-01-17T18:42:26.627Z,87.53
2023-01-17T18:44:53.148Z,87.39
2023-01-17T18:47:19.920Z,87.18
2023-01-17T18:49:46.459Z,87.59
2023-01-17T18:52:13.203Z,88.21
2023-01-17T18:54:39.720Z,87.50
2023-01-17T18:57:07.755Z,88.65
2023-01-17T18:59:34.389Z,88.40
2023-01-17T19:02:01.077Z,88.97
2023-01-17T19:04:27.612Z,88.52
2023-01-17T19:06:54.196Z,89.43
2023-01-17T19:09:20.791Z,89.13
2023-01-17T19:11:47.864Z,89.36
2023-01-17T19:14:15.868Z,88.81
2023-01-17T19:16:43.138Z,89.54
2023-01-17T19:19:12.375Z,89.52
2023-01-17T19:21:39.254Z,90.07
2023-01-17T19:24:06.347Z,89.91
2023-01-17T19:26:32.949Z,90.15
2023-01-17T19:28:59.841Z,90.51
2023-01-17T19:31:29.958Z,90.40
2023-01-17T19:33:58.478Z,90.72
2023-01-17T19:36:26.752Z,90.61
2023-01-17T19:39:03.942Z,90.79
2023-01-17T19:41:31.505Z,90.69
2023-01-17T19:44:00.520Z,90.81
2023-01-17T19:46:29.345Z,90.62
2023-01-17T19:48:57.391Z,91.11
2023-01-17T19:51:25.175Z,91.42
2023-01-17T19:53:51.864Z,91.07
2023-01-17T19:56:20.182Z,91.88
2023-01-17T19:58:47.730Z,91.82
2023-01-17T20:01:16.598Z,91.44
2023-01-17T20:03:46.492Z,91.94
2023-01-17T20:06:15.615Z,91.73
2023-01-17T20:08:42.250Z,91.82
2023-01-17T20:11:11.593Z,91.75
2023-01-17T20:13:38.087Z,91.93
2023-01-17T20:16:07.200Z,92.05
2023-01-17T20:18:34.654Z,92.09
2023-01-17T20:21:07.516Z,91.91
2023-01-17T20:23:34.559Z,91.05
2023-01-17T20:26:01.658Z,91.25
2023-01-17T20:28:30.058Z,91.23
2023-01-17T20:30:56.972Z,91.72
2023-01-17T20:33:24.228Z,91.86
2023-01-17T20:36:04.860Z,92.47
2023-01-17T20:38:38.439Z,91.70
2023-01-17T20:41:05.192Z,92.03
2023-01-17T20:43:31.787Z,92.34
2023-01-17T20:45:58.344Z,92.69
2023-01-17T20:48:24.984Z,92.17
2023-01-17T20:50:51.553Z,92.04
2023-01-17T20:53:18.254Z,91.85
2023-01-17T20:55:46.220Z,92.19
2023-01-17T20:58:13.056Z,91.34
2023-01-17T21:00:39.618Z,91.75
2023-01-17T21:03:06.284Z,91.69
2023-01-17T21:05:32.853Z,91.12
2023-01-17T21:07:59.751Z,90.96
2023-01-17T21:10:26.299Z,91.31
2023-01-17T21:12:54.227Z,91.22
2023-01-17T21:15:20.790Z,91.36
2023-01-17T21:17:47.543Z,90.63
2023-01-17T21:20:14.305Z,91.43
2023-01-17T21:22:41.062Z,91.68
2023-01-17T21:25:08.497Z,91.49
2023-01-17T21:27:35.189Z,91.32
2023-01-17T21:30:03.590Z,91.93
2023-01-17T21:32:30.171Z,91.81
2023-01-17T21:34:56.731Z,92.30
2023-01-17T21:37:23.587Z,92.12
2023-01-17T21:39:50.157Z,91.98
2023-01-17T21:42:16.835Z,91.79
2023-01-17T21:44:43.408Z,91.94
2023-01-17T21:47:11.424Z,92.66
2023-01-17T21:49:37.958Z,92.49
2023-01-17T21:52:04.791Z,92.96
2023-01-17T21:54:31.784Z,93.11
2023-01-17T21:56:58.398Z,93.05
2023-01-17T21:59:24.981Z,92.73
2023-01-17T22:01:51.561Z,92.71
2023-01-17T22:04:19.448Z,92.73
2023-01-17T22:06:46.096Z,92.84
2023-01-17T22:09:12.651Z,93.02
2023-01-17T22:11:39.207Z,92.69
2023-01-17T22:14:06.256Z,92.11
2023-01-17T22:16:32.902Z,92.01
2023-01-17T22:18:59.487Z,92.20
2023-01-17T22:21:28.769Z,91.79
2023-01-17T22:23:56.945Z,91.97
2023-01-17T22:26:25.951Z,91.93
2023-01-17T22:28:53.299Z,91.66
2023-01-17T22:31:22.251Z,92.02
2023-01-17T22:33:53.555Z,91.86
2023-01-17T22:36:20.783Z,92.39
2023-01-17T22:38:49.166Z,93.26
2023-01-17T22:41:18.005Z,93.37
2023-01-17T22:43:46.360Z,93.48
2023-01-17T22:46:15.164Z,93.30
2023-01-17T22:48:42.290Z,92.88
2023-01-17T22:51:10.862Z,93.21
2023-01-17T22:53:40.131Z,92.36
2023-01-17T22:56:10.595Z,92.27
2023-01-17T22:58:37.197Z,92.13
2023-01-17T23:01:04.859Z,92.71
2023-01-17T23:03:31.866Z,92.61
2023-01-17T23:06:07.882Z,92.63
2023-01-17T23:08:34.828Z,93.06
2023-01-17T23:11:01.621Z,93.37
2023-01-17T23:13:29.607Z,93.48
2023-01-17T23:15:56.240Z,93.28
2023-01-17T23:18:22.933Z,93.00
2023-01-17T23:20:49.496Z,93.47
2023-01-17T23:23:16.125Z,93.19
2023-01-17T23:25:42.696Z,93.12
2023-01-17T23:28:09.517Z,93.29
2023-01-17T23:30:39.012Z,93.58
2023-01-17T23:33:07.520Z,93.59
2023-01-17T23:35:41.506Z,93.46
2023-01-17T23:38:12.012Z,93.93
2023-01-17T23:40:39.455Z,93.96
2023-01-17T23:43:06.715Z,93.82
2023-01-17T23:45:34.535Z,93.23
2023-01-17T23:48:02.788Z,92.82
2023-01-17T23:50:29.321Z,93.01
2023-01-17T23:52:56.245Z,92.45
2023-01-17T23:55:23.132Z,92.56
2023-01-17T23:57:50.428Z,92.64
